createdAt,value
2017-01-22T00:00:11.804Z,16.74
2017-01-22T00:01:11.875Z,16.75
2017-01-22T00:02:11.849Z,16.74
2017-01-22T00:03:13.162Z,16.78
2017-01-22T00:04:13.568Z,16.75
2017-01-22T00:05:13.062Z,16.77
2017-01-22T00:06:13.423Z,16.76
2017-01-22T00:07:09.754Z,16.76
2017-01-22T00:08:11.889Z,16.77
2017-01-22T00:09:12.690Z,16.77
2017-01-22T00:10:11.639Z,16.77
2017-01-22T00:11:12.129Z,16.77
2017-01-22T00:12:12.760Z,16.76
2017-01-22T00:13:11.883Z,16.78
2017-01-22T00:14:11.950Z,16.77
2017-01-22T00:15:11.917Z,16.77
2017-01-22T00:16:11.913Z,16.77
2017-01-22T00:17:12.770Z,16.77
2017-01-22T00:18:11.088Z,16.76
2017-01-22T00:19:13.339Z,16.77
2017-01-22T00:20:12.624Z,16.77
2017-01-22T00:21:11.855Z,16.77
2017-01-22T00:22:12.639Z,16.81
2017-01-22T00:23:11.693Z,16.76
2017-01-22T00:24:12.466Z,16.78
2017-01-22T00:25:13.799Z,16.77
2017-01-22T00:26:11.720Z,16.76
2017-01-22T00:27:12.413Z,16.80
2017-01-22T00:28:12.318Z,16.77
2017-01-22T00:29:13.333Z,16.76
2017-01-22T00:30:12.418Z,16.76
2017-01-22T00:31:12.487Z,16.76
2017-01-22T00:32:12.639Z,16.76
2017-01-22T00:33:13.249Z,16.83
2017-01-22T00:34:12.748Z,16.76
2017-01-22T00:35:12.450Z,16.76
2017-01-22T00:36:13.134Z,16.76
2017-01-22T00:37:13.936Z,16.76
2017-01-22T00:38:11.856Z,16.77
2017-01-22T00:39:11.844Z,16.78
2017-01-22T00:40:12.521Z,16.78
2017-01-22T00:41:11.689Z,16.78
2017-01-22T00:42:12.628Z,16.78
2017-01-22T00:43:11.651Z,16.77
2017-01-22T00:44:11.729Z,16.77
2017-01-22T00:45:14.266Z,16.75
2017-01-22T00:46:13.092Z,16.77
2017-01-22T00:47:12.955Z,16.75
2017-01-22T00:48:12.342Z,16.79
2017-01-22T00:49:13.970Z,16.75
2017-01-22T00:50:09.379Z,16.74
2017-01-22T00:51:13.369Z,16.74
2017-01-22T00:52:12.969Z,16.78
2017-01-22T00:53:13.745Z,16.74
2017-01-22T00:54:12.275Z,16.74
2017-01-22T00:55:13.683Z,16.77
2017-01-22T00:56:11.756Z,16.74
2017-01-22T00:57:13.346Z,16.78
2017-01-22T00:58:12.439Z,16.74
2017-01-22T00:59:13.015Z,16.73
2017-01-22T01:00:14.275Z,16.75
2017-01-22T01:01:13.878Z,16.74
2017-01-22T01:02:12.758Z,16.73
2017-01-22T01:03:10.648Z,16.73
2017-01-22T01:04:12.237Z,16.75
2017-01-22T01:05:13.771Z,16.72
2017-01-22T01:06:11.907Z,16.72
2017-01-22T01:07:12.538Z,16.76
2017-01-22T01:08:13.262Z,16.72
2017-01-22T01:09:12.919Z,16.71
2017-01-22T01:10:14.029Z,16.71
2017-01-22T01:11:12.982Z,16.70
2017-01-22T01:12:12.753Z,16.71
2017-01-22T01:13:11.950Z,16.71
2017-01-22T01:14:12.902Z,16.73
2017-01-22T01:15:14.478Z,16.71
2017-01-22T01:16:12.519Z,16.71
2017-01-22T01:17:12.758Z,16.71
2017-01-22T01:18:13.514Z,16.76
2017-01-22T01:19:15.145Z,16.71
2017-01-22T01:20:13.782Z,16.70
2017-01-22T01:21:13.149Z,16.70
2017-01-22T01:22:14.185Z,16.69
2017-01-22T01:23:15.731Z,16.69
2017-01-22T01:24:12.257Z,16.75
2017-01-22T01:25:13.486Z,16.69
2017-01-22T01:26:14.990Z,16.69
2017-01-22T01:27:12.187Z,16.69
2017-01-22T01:28:13.620Z,16.70
2017-01-22T01:29:12.850Z,16.69
2017-01-22T01:30:15.072Z,16.69
2017-01-22T01:31:12.263Z,16.69
2017-01-22T01:32:13.449Z,16.68
2017-01-22T01:33:12.772Z,16.72
2017-01-22T01:34:13.835Z,16.74
2017-01-22T01:35:13.221Z,16.68
2017-01-22T01:36:12.876Z,16.68
2017-01-22T01:37:15.097Z,16.68
2017-01-22T01:38:13.743Z,16.67
2017-01-22T01:39:14.673Z,16.67
2017-01-22T01:40:13.667Z,16.68
2017-01-22T01:41:13.649Z,16.68
2017-01-22T01:42:12.605Z,16.68
2017-01-22T01:43:13.138Z,16.69
2017-01-22T01:44:13.930Z,16.68
2017-01-22T01:45:11.964Z,16.67
2017-01-22T01:46:13.745Z,16.67
2017-01-22T01:47:13.404Z,16.67
2017-01-22T01:48:13.838Z,16.67
2017-01-22T01:49:12.849Z,16.67
2017-01-22T01:50:11.967Z,16.67
2017-01-22T01:51:12.470Z,16.67
2017-01-22T01:52:13.139Z,16.67
2017-01-22T01:53:13.657Z,16.67
2017-01-22T01:54:13.837Z,16.67
2017-01-22T01:55:13.220Z,16.67
2017-01-22T01:56:12.866Z,17.20
2017-01-22T01:57:13.106Z,17.27
2017-01-22T01:58:13.337Z,16.74
2017-01-22T01:59:14.929Z,16.70
2017-01-22T02:00:13.311Z,16.70
2017-01-22T02:01:13.939Z,16.70
2017-01-22T02:02:11.806Z,16.67
2017-01-22T02:03:12.393Z,16.67
2017-01-22T02:04:13.622Z,16.67
2017-01-22T02:05:11.708Z,16.67
2017-01-22T02:06:13.611Z,16.67
2017-01-22T02:07:12.600Z,16.66
2017-01-22T02:08:11.621Z,16.66
2017-01-22T02:09:11.708Z,16.67
2017-01-22T02:10:11.664Z,16.67
2017-01-22T02:11:13.500Z,16.66
2017-01-22T02:12:15.831Z,16.67
2017-01-22T02:13:11.942Z,16.67
2017-01-22T02:14:12.895Z,16.66
2017-01-22T02:15:13.239Z,16.66
2017-01-22T02:16:14.220Z,16.66
2017-01-22T02:17:12.490Z,16.67
2017-01-22T02:18:14.533Z,16.67
2017-01-22T02:19:14.200Z,16.67
2017-01-22T02:20:13.234Z,16.67
2017-01-22T02:21:14.019Z,16.67
2017-01-22T02:22:12.992Z,16.67
2017-01-22T02:23:15.326Z,16.71
2017-01-22T02:24:13.384Z,16.66
2017-01-22T02:25:12.708Z,16.72
2017-01-22T02:26:11.793Z,16.66
2017-01-22T02:27:12.907Z,16.67
2017-01-22T02:28:12.289Z,16.67
2017-01-22T02:29:13.786Z,16.66
2017-01-22T02:30:13.146Z,16.66
2017-01-22T02:31:13.911Z,16.67
2017-01-22T02:32:13.610Z,16.67
2017-01-22T02:33:12.144Z,16.67
2017-01-22T02:34:12.398Z,16.67
2017-01-22T02:35:13.242Z,16.67
2017-01-22T02:36:12.291Z,16.67
2017-01-22T02:37:12.340Z,16.67
2017-01-22T02:38:13.321Z,16.68
2017-01-22T02:39:13.739Z,16.70
2017-01-22T02:40:12.047Z,16.67
2017-01-22T02:41:12.981Z,16.67
2017-01-22T02:42:13.062Z,16.67
2017-01-22T02:43:10.064Z,16.67
2017-01-22T02:44:14.798Z,16.67
2017-01-22T02:45:13.099Z,16.67
2017-01-22T02:46:13.678Z,16.66
2017-01-22T02:47:11.749Z,16.67
2017-01-22T02:48:13.478Z,16.66
2017-01-22T02:49:14.231Z,16.66
2017-01-22T02:50:10.734Z,17.18
2017-01-22T02:51:14.863Z,16.93
2017-01-22T02:52:11.900Z,16.74
2017-01-22T02:53:12.308Z,16.75
2017-01-22T02:54:12.282Z,16.68
2017-01-22T02:55:14.039Z,16.67
2017-01-22T02:56:12.637Z,16.67
2017-01-22T02:57:11.571Z,16.67
2017-01-22T02:58:12.881Z,16.71
2017-01-22T02:59:13.431Z,16.66
2017-01-22T03:00:14.066Z,16.66
2017-01-22T03:01:12.770Z,16.66
2017-01-22T03:02:14.353Z,16.65
2017-01-22T03:03:13.863Z,16.65
2017-01-22T03:04:12.884Z,16.66
2017-01-22T03:05:12.548Z,16.66
2017-01-22T03:06:11.617Z,16.65
2017-01-22T03:07:12.116Z,16.66
2017-01-22T03:08:12.717Z,16.66
2017-01-22T03:09:12.358Z,16.66
2017-01-22T03:10:12.464Z,16.65
2017-01-22T03:11:14.479Z,16.65
2017-01-22T03:12:13.025Z,16.66
2017-01-22T03:13:13.920Z,16.65
2017-01-22T03:14:12.730Z,16.65
2017-01-22T03:15:11.667Z,16.65
2017-01-22T03:16:12.045Z,16.71
2017-01-22T03:17:12.566Z,16.66
2017-01-22T03:18:12.444Z,16.65
2017-01-22T03:19:13.364Z,16.71
2017-01-22T03:20:12.378Z,16.65
2017-01-22T03:21:13.120Z,16.72
2017-01-22T03:22:12.255Z,16.65
2017-01-22T03:23:13.753Z,16.65
2017-01-22T03:24:12.305Z,16.68
2017-01-22T03:25:14.059Z,16.64
2017-01-22T03:26:14.948Z,16.65
2017-01-22T03:27:12.445Z,16.69
2017-01-22T03:28:12.818Z,16.72
2017-01-22T03:29:11.824Z,17.17
2017-01-22T03:30:11.955Z,17.23
2017-01-22T03:31:12.103Z,17.27
2017-01-22T03:32:13.058Z,17.27
2017-01-22T03:33:12.700Z,17.29
2017-01-22T03:34:12.769Z,17.29
2017-01-22T03:35:12.738Z,16.94
2017-01-22T03:36:11.626Z,16.75
2017-01-22T03:37:10.498Z,16.70
2017-01-22T03:38:11.999Z,16.75
2017-01-22T03:39:13.111Z,16.67
2017-01-22T03:40:12.712Z,16.66
2017-01-22T03:41:11.824Z,16.65
2017-01-22T03:42:13.710Z,16.65
2017-01-22T03:43:13.843Z,16.65
2017-01-22T03:44:12.410Z,16.65
2017-01-22T03:45:12.348Z,16.66
2017-01-22T03:46:11.285Z,16.65
2017-01-22T03:47:13.656Z,16.65
2017-01-22T03:48:10.542Z,16.65
2017-01-22T03:49:11.141Z,17.19
2017-01-22T03:50:13.679Z,17.24
2017-01-22T03:51:12.808Z,17.26
2017-01-22T03:52:10.598Z,17.28
2017-01-22T03:53:12.429Z,17.29
2017-01-22T03:54:14.066Z,17.28
2017-01-22T03:55:12.087Z,16.74
2017-01-22T03:56:14.908Z,16.69
2017-01-22T03:57:12.598Z,16.67
2017-01-22T03:58:13.169Z,16.65
2017-01-22T03:59:14.657Z,16.65
2017-01-22T04:00:11.627Z,16.65
2017-01-22T04:01:12.758Z,16.68
2017-01-22T04:02:12.830Z,16.63
2017-01-22T04:03:13.093Z,16.63
2017-01-22T04:04:11.937Z,16.63
2017-01-22T04:05:13.038Z,16.63
2017-01-22T04:06:12.961Z,16.63
2017-01-22T04:07:13.534Z,16.62
2017-01-22T04:08:13.026Z,16.68
2017-01-22T04:09:11.966Z,16.62
2017-01-22T04:10:13.617Z,16.62
2017-01-22T04:11:11.840Z,16.63
2017-01-22T04:12:13.540Z,16.63
2017-01-22T04:13:13.251Z,16.63
2017-01-22T04:14:12.163Z,16.63
2017-01-22T04:15:13.783Z,16.62
2017-01-22T04:16:12.948Z,16.62
2017-01-22T04:17:11.027Z,16.62
2017-01-22T04:18:13.409Z,16.62
2017-01-22T04:19:12.478Z,16.62
2017-01-22T04:20:13.129Z,16.63
2017-01-22T04:21:13.230Z,16.67
2017-01-22T04:22:12.229Z,16.62
2017-01-22T04:23:13.965Z,16.61
2017-01-22T04:24:12.569Z,16.62
2017-01-22T04:25:12.898Z,16.62
2017-01-22T04:26:12.952Z,16.62
2017-01-22T04:27:12.605Z,16.61
2017-01-22T04:28:14.388Z,16.61
2017-01-22T04:29:12.827Z,16.70
2017-01-22T04:30:11.792Z,17.17
2017-01-22T04:31:12.455Z,16.85
2017-01-22T04:32:12.798Z,16.77
2017-01-22T04:33:12.343Z,16.66
2017-01-22T04:34:14.108Z,16.64
2017-01-22T04:35:15.425Z,16.64
2017-01-22T04:36:13.256Z,16.65
2017-01-22T04:37:12.938Z,16.82
2017-01-22T04:38:13.068Z,16.69
2017-01-22T04:39:13.883Z,16.67
2017-01-22T04:40:11.666Z,16.65
2017-01-22T04:41:11.718Z,16.65
2017-01-22T04:42:12.815Z,16.66
2017-01-22T04:43:13.483Z,16.66
2017-01-22T04:44:12.413Z,16.64
2017-01-22T04:45:12.478Z,16.64
2017-01-22T04:46:11.420Z,16.64
2017-01-22T04:47:12.972Z,17.20
2017-01-22T04:48:13.274Z,17.24
2017-01-22T04:49:12.829Z,17.25
2017-01-22T04:50:12.387Z,16.78
2017-01-22T04:51:14.807Z,16.68
2017-01-22T04:52:12.283Z,16.71
2017-01-22T04:53:13.038Z,16.66
2017-01-22T04:54:12.638Z,16.65
2017-01-22T04:55:12.070Z,16.68
2017-01-22T04:56:12.125Z,16.65
2017-01-22T04:57:12.202Z,16.64
2017-01-22T04:58:13.826Z,16.64
2017-01-22T04:59:11.849Z,16.64
2017-01-22T05:00:11.751Z,16.64
2017-01-22T05:01:12.412Z,16.63
2017-01-22T05:02:12.615Z,16.64
2017-01-22T05:03:11.965Z,16.70
2017-01-22T05:04:12.414Z,16.69
2017-01-22T05:05:12.327Z,16.63
2017-01-22T05:06:12.932Z,16.63
2017-01-22T05:07:12.535Z,16.68
2017-01-22T05:08:11.131Z,16.64
2017-01-22T05:09:13.060Z,16.68
2017-01-22T05:10:11.316Z,16.63
2017-01-22T05:11:13.512Z,16.63
2017-01-22T05:12:13.189Z,16.64
2017-01-22T05:13:14.037Z,16.65
2017-01-22T05:14:11.912Z,16.65
2017-01-22T05:15:11.960Z,16.64
2017-01-22T05:16:11.936Z,16.65
2017-01-22T05:17:13.961Z,16.63
2017-01-22T05:18:12.090Z,16.65
2017-01-22T05:19:09.536Z,16.64
2017-01-22T05:20:12.230Z,16.64
2017-01-22T05:21:14.055Z,16.64
2017-01-22T05:22:12.736Z,16.65
2017-01-22T05:23:12.895Z,16.68
2017-01-22T05:24:11.817Z,16.64
2017-01-22T05:25:16.725Z,16.68
2017-01-22T05:26:13.501Z,17.18
2017-01-22T05:27:12.584Z,17.23
2017-01-22T05:28:13.641Z,17.26
2017-01-22T05:29:12.150Z,16.94
2017-01-22T05:30:12.042Z,16.75
2017-01-22T05:31:12.068Z,16.70
2017-01-22T05:32:13.476Z,16.67
2017-01-22T05:33:13.219Z,16.67
2017-01-22T05:34:12.178Z,16.65
2017-01-22T05:35:12.176Z,16.65
2017-01-22T05:36:12.137Z,16.65
2017-01-22T05:37:12.057Z,16.64
2017-01-22T05:38:12.646Z,16.70
2017-01-22T05:39:12.365Z,16.64
2017-01-22T05:40:12.925Z,16.64
2017-01-22T05:41:14.584Z,16.64
2017-01-22T05:42:11.611Z,16.64
2017-01-22T05:43:12.591Z,16.63
2017-01-22T05:44:11.652Z,16.63
2017-01-22T05:45:12.247Z,16.63
2017-01-22T05:46:11.042Z,16.63
2017-01-22T05:47:10.934Z,16.62
2017-01-22T05:48:12.960Z,16.63
2017-01-22T05:49:12.477Z,16.69
2017-01-22T05:50:13.246Z,16.63
2017-01-22T05:51:13.113Z,16.64
2017-01-22T05:52:12.573Z,16.63
2017-01-22T05:53:12.342Z,16.63
2017-01-22T05:54:13.539Z,16.70
2017-01-22T05:55:13.190Z,16.64
2017-01-22T05:56:12.145Z,16.63
2017-01-22T05:57:12.884Z,16.62
2017-01-22T05:58:13.554Z,16.64
2017-01-22T05:59:13.185Z,16.63
2017-01-22T06:00:12.215Z,16.63
2017-01-22T06:01:17.521Z,16.62
2017-01-22T06:02:12.108Z,16.63
2017-01-22T06:03:13.277Z,16.63
2017-01-22T06:04:13.511Z,16.63
2017-01-22T06:05:13.405Z,16.63
2017-01-22T06:06:12.381Z,16.62
2017-01-22T06:07:13.084Z,16.63
2017-01-22T06:08:10.553Z,16.62
2017-01-22T06:09:12.406Z,17.17
2017-01-22T06:10:12.316Z,16.87
2017-01-22T06:11:14.137Z,16.69
2017-01-22T06:12:12.804Z,16.66
2017-01-22T06:13:13.270Z,16.64
2017-01-22T06:14:13.377Z,16.69
2017-01-22T06:15:12.538Z,16.63
2017-01-22T06:16:12.476Z,16.63
2017-01-22T06:17:12.751Z,16.62
2017-01-22T06:18:11.749Z,16.62
2017-01-22T06:19:13.036Z,16.62
2017-01-22T06:20:12.035Z,17.15
2017-01-22T06:21:12.461Z,17.21
2017-01-22T06:22:12.535Z,16.87
2017-01-22T06:23:12.592Z,16.71
2017-01-22T06:24:12.466Z,16.66
2017-01-22T06:25:16.076Z,16.65
2017-01-22T06:26:12.771Z,16.63
2017-01-22T06:27:11.775Z,16.63
2017-01-22T06:28:13.667Z,16.65
2017-01-22T06:29:12.547Z,16.62
2017-01-22T06:30:12.474Z,16.62
2017-01-22T06:31:15.292Z,16.62
2017-01-22T06:32:12.741Z,16.70
2017-01-22T06:33:12.614Z,16.62
2017-01-22T06:34:12.186Z,16.62
2017-01-22T06:35:12.644Z,16.61
2017-01-22T06:36:12.725Z,16.62
2017-01-22T06:37:13.246Z,16.62
2017-01-22T06:38:15.334Z,16.62
2017-01-22T06:39:12.977Z,16.63
2017-01-22T06:40:11.934Z,16.63
2017-01-22T06:41:12.585Z,16.62
2017-01-22T06:42:11.662Z,16.63
2017-01-22T06:43:13.812Z,16.63
2017-01-22T06:44:12.822Z,16.63
2017-01-22T06:45:12.723Z,16.63
2017-01-22T06:46:12.460Z,16.63
2017-01-22T06:47:13.252Z,16.63
2017-01-22T06:48:13.273Z,16.62
2017-01-22T06:49:13.384Z,16.63
2017-01-22T06:50:12.283Z,16.62
2017-01-22T06:51:12.703Z,16.67
2017-01-22T06:52:13.437Z,16.62
2017-01-22T06:53:13.068Z,16.62
2017-01-22T06:54:12.822Z,16.62
2017-01-22T06:55:13.381Z,16.63
2017-01-22T06:56:12.314Z,16.65
2017-01-22T06:57:13.865Z,17.18
2017-01-22T06:58:13.767Z,17.25
2017-01-22T06:59:11.855Z,17.27
2017-01-22T07:00:11.815Z,17.28
2017-01-22T07:01:11.757Z,17.30
2017-01-22T07:02:10.500Z,17.31
2017-01-22T07:03:11.553Z,16.77
2017-01-22T07:04:13.085Z,16.72
2017-01-22T07:05:12.651Z,16.76
2017-01-22T07:06:12.814Z,16.68
2017-01-22T07:07:12.828Z,16.68
2017-01-22T07:08:13.529Z,16.67
2017-01-22T07:09:12.565Z,16.66
2017-01-22T07:10:11.407Z,16.67
2017-01-22T07:11:14.452Z,16.67
2017-01-22T07:12:12.974Z,16.66
2017-01-22T07:13:12.835Z,16.67
2017-01-22T07:14:12.527Z,16.66
2017-01-22T07:15:12.405Z,16.67
2017-01-22T07:16:12.324Z,16.67
2017-01-22T07:17:12.565Z,16.67
2017-01-22T07:18:13.283Z,16.67
2017-01-22T07:19:12.829Z,16.66
2017-01-22T07:20:11.884Z,17.20
2017-01-22T07:21:13.148Z,17.27
2017-01-22T07:22:12.078Z,17.29
2017-01-22T07:23:13.699Z,17.30
2017-01-22T07:24:14.150Z,17.31
2017-01-22T07:25:13.555Z,17.33
2017-01-22T07:26:11.635Z,17.33
2017-01-22T07:27:12.310Z,17.33
2017-01-22T07:28:15.960Z,17.35
2017-01-22T07:29:11.859Z,17.36
2017-01-22T07:30:11.863Z,17.36
2017-01-22T07:31:12.375Z,17.38
2017-01-22T07:32:12.425Z,17.37
2017-01-22T07:33:12.425Z,17.38
2017-01-22T07:34:12.309Z,17.37
2017-01-22T07:35:12.094Z,17.37
2017-01-22T07:36:12.424Z,17.08
2017-01-22T07:37:13.985Z,16.83
2017-01-22T07:38:12.062Z,16.78
2017-01-22T07:39:12.589Z,16.81
2017-01-22T07:40:11.492Z,16.73
2017-01-22T07:41:12.424Z,16.73
2017-01-22T07:42:13.361Z,16.72
2017-01-22T07:43:13.983Z,16.72
2017-01-22T07:44:11.945Z,16.71
2017-01-22T07:45:11.900Z,16.71
2017-01-22T07:46:11.861Z,16.72
2017-01-22T07:47:12.441Z,16.72
2017-01-22T07:48:13.019Z,16.71
2017-01-22T07:49:12.471Z,16.78
2017-01-22T07:50:12.558Z,16.71
2017-01-22T07:51:13.073Z,16.70
2017-01-22T07:52:12.950Z,16.72
2017-01-22T07:53:10.853Z,16.70
2017-01-22T07:54:12.930Z,16.72
2017-01-22T07:55:12.271Z,16.77
2017-01-22T07:56:11.150Z,16.70
2017-01-22T07:57:12.215Z,16.71
2017-01-22T07:58:14.013Z,16.71
2017-01-22T07:59:13.862Z,16.71
2017-01-22T08:00:11.880Z,16.70
2017-01-22T08:01:12.344Z,16.77
2017-01-22T08:02:13.596Z,16.72
2017-01-22T08:03:12.312Z,16.70
2017-01-22T08:04:12.199Z,16.71
2017-01-22T08:05:12.186Z,16.71
2017-01-22T08:06:12.985Z,16.70
2017-01-22T08:07:12.483Z,16.70
2017-01-22T08:08:13.025Z,16.70
2017-01-22T08:09:11.922Z,16.70
2017-01-22T08:10:12.001Z,16.70
2017-01-22T08:11:12.851Z,16.70
2017-01-22T08:12:12.592Z,16.71
2017-01-22T08:13:13.533Z,16.74
2017-01-22T08:14:13.074Z,16.69
2017-01-22T08:15:13.200Z,16.69
2017-01-22T08:16:12.096Z,16.70
2017-01-22T08:17:13.311Z,16.72
2017-01-22T08:18:12.298Z,16.74
2017-01-22T08:19:12.277Z,16.76
2017-01-22T08:20:12.796Z,16.83
2017-01-22T08:21:11.978Z,16.78
2017-01-22T08:22:11.988Z,16.77
2017-01-22T08:23:11.208Z,16.77
2017-01-22T08:24:12.173Z,16.77
2017-01-22T08:25:12.311Z,16.77
2017-01-22T08:26:12.720Z,16.82
2017-01-22T08:27:11.707Z,16.76
2017-01-22T08:28:13.238Z,16.76
2017-01-22T08:29:12.632Z,16.82
2017-01-22T08:30:11.661Z,16.76
2017-01-22T08:31:12.814Z,16.75
2017-01-22T08:32:13.556Z,16.74
2017-01-22T08:33:13.620Z,16.75
2017-01-22T08:34:12.815Z,16.74
2017-01-22T08:35:12.241Z,16.78
2017-01-22T08:36:13.203Z,16.75
2017-01-22T08:37:12.778Z,16.75
2017-01-22T08:38:12.390Z,16.76
2017-01-22T08:39:12.377Z,16.76
2017-01-22T08:40:12.915Z,16.76
2017-01-22T08:41:12.735Z,16.77
2017-01-22T08:42:11.884Z,16.78
2017-01-22T08:43:13.698Z,16.79
2017-01-22T08:44:11.676Z,16.80
2017-01-22T08:45:10.913Z,16.80
2017-01-22T08:46:12.679Z,16.82
2017-01-22T08:47:12.204Z,16.87
2017-01-22T08:48:12.278Z,16.84
2017-01-22T08:49:13.114Z,16.85
2017-01-22T08:50:12.561Z,16.84
2017-01-22T08:51:12.232Z,16.85
2017-01-22T08:52:12.319Z,16.86
2017-01-22T08:53:11.255Z,16.85
2017-01-22T08:54:12.976Z,17.40
2017-01-22T08:55:12.546Z,17.45
2017-01-22T08:56:12.104Z,17.48
2017-01-22T08:57:12.595Z,17.50
2017-01-22T08:58:14.261Z,17.51
2017-01-22T08:59:12.789Z,17.53
2017-01-22T09:00:19.079Z,17.54
2017-01-22T09:01:12.123Z,17.54
2017-01-22T09:02:12.724Z,17.56
2017-01-22T09:03:12.389Z,17.57
2017-01-22T09:04:12.597Z,17.21
2017-01-22T09:05:12.872Z,17.03
2017-01-22T09:06:11.798Z,16.97
2017-01-22T09:07:11.323Z,16.93
2017-01-22T09:08:13.271Z,16.97
2017-01-22T09:09:13.143Z,16.92
2017-01-22T09:10:12.219Z,16.92
2017-01-22T09:11:12.857Z,16.93
2017-01-22T09:12:13.506Z,16.92
2017-01-22T09:13:13.388Z,16.94
2017-01-22T09:14:11.686Z,16.94
2017-01-22T09:15:11.725Z,16.94
2017-01-22T09:16:12.532Z,16.93
2017-01-22T09:17:13.251Z,16.94
2017-01-22T09:18:13.997Z,16.94
2017-01-22T09:19:12.512Z,16.95
2017-01-22T09:20:14.137Z,16.95
2017-01-22T09:21:09.917Z,16.95
2017-01-22T09:22:13.013Z,17.54
2017-01-22T09:23:12.341Z,17.62
2017-01-22T09:24:12.336Z,17.62
2017-01-22T09:25:12.236Z,17.72
2017-01-22T09:26:14.772Z,17.76
2017-01-22T09:27:12.312Z,17.26
2017-01-22T09:28:13.609Z,17.17
2017-01-22T09:29:14.244Z,17.13
2017-01-22T09:30:13.547Z,17.11
2017-01-22T09:31:11.581Z,17.07
2017-01-22T09:32:12.174Z,17.11
2017-01-22T09:33:12.580Z,17.08
2017-01-22T09:34:11.549Z,17.02
2017-01-22T09:35:12.996Z,17.01
2017-01-22T09:36:11.963Z,17.00
2017-01-22T09:37:13.706Z,16.99
2017-01-22T09:38:12.398Z,16.99
2017-01-22T09:39:12.415Z,16.98
2017-01-22T09:40:12.409Z,16.98
2017-01-22T09:41:12.910Z,17.04
2017-01-22T09:42:12.465Z,17.04
2017-01-22T09:43:14.012Z,16.98
2017-01-22T09:44:12.532Z,17.04
2017-01-22T09:45:12.167Z,16.97
2017-01-22T09:46:12.694Z,16.97
2017-01-22T09:47:09.580Z,16.96
2017-01-22T09:48:11.999Z,16.97
2017-01-22T09:49:12.763Z,16.97
2017-01-22T09:50:12.775Z,16.97
2017-01-22T09:51:15.200Z,16.96
2017-01-22T09:52:12.676Z,16.97
2017-01-22T09:53:12.721Z,16.90
2017-01-22T09:54:12.365Z,16.83
2017-01-22T09:55:14.487Z,16.78
2017-01-22T09:56:13.242Z,16.79
2017-01-22T09:57:15.076Z,16.80
2017-01-22T09:58:12.932Z,16.84
2017-01-22T09:59:12.481Z,16.92
2017-01-22T10:00:12.562Z,16.87
2017-01-22T10:01:13.137Z,16.89
2017-01-22T10:02:13.106Z,16.94
2017-01-22T10:03:11.028Z,16.92
2017-01-22T10:04:12.627Z,16.94
2017-01-22T10:05:12.267Z,16.99
2017-01-22T10:06:13.151Z,16.96
2017-01-22T10:07:12.908Z,16.97
2017-01-22T10:08:12.486Z,16.97
2017-01-22T10:09:12.565Z,16.98
2017-01-22T10:10:12.159Z,17.00
2017-01-22T10:11:13.351Z,16.99
2017-01-22T10:12:12.276Z,17.00
2017-01-22T10:13:13.962Z,17.00
2017-01-22T10:14:12.595Z,17.04
2017-01-22T10:15:12.412Z,17.00
2017-01-22T10:16:13.091Z,17.00
2017-01-22T10:17:12.571Z,17.01
2017-01-22T10:18:11.600Z,17.01
2017-01-22T10:19:12.286Z,17.01
2017-01-22T10:20:12.386Z,17.01
2017-01-22T10:21:12.513Z,17.02
2017-01-22T10:22:11.225Z,17.01
2017-01-22T10:23:13.984Z,17.02
2017-01-22T10:24:11.958Z,17.03
2017-01-22T10:25:12.113Z,17.03
2017-01-22T10:26:13.175Z,17.03
2017-01-22T10:27:12.649Z,17.08
2017-01-22T10:28:13.176Z,17.03
2017-01-22T10:29:12.695Z,17.11
2017-01-22T10:30:11.846Z,17.03
2017-01-22T10:31:11.954Z,17.03
2017-01-22T10:32:12.002Z,17.03
2017-01-22T10:33:12.754Z,17.07
2017-01-22T10:34:13.200Z,17.03
2017-01-22T10:35:12.174Z,17.02
2017-01-22T10:36:12.313Z,17.03
2017-01-22T10:37:12.354Z,17.03
2017-01-22T10:38:12.202Z,17.02
2017-01-22T10:39:12.668Z,17.12
2017-01-22T10:40:11.623Z,17.03
2017-01-22T10:41:12.409Z,17.03
2017-01-22T10:42:13.153Z,17.02
2017-01-22T10:43:13.969Z,17.03
2017-01-22T10:44:13.535Z,17.03
2017-01-22T10:45:12.678Z,17.03
2017-01-22T10:46:11.659Z,17.04
2017-01-22T10:47:12.286Z,17.04
2017-01-22T10:48:14.164Z,17.08
2017-01-22T10:49:12.909Z,17.05
2017-01-22T10:50:12.349Z,17.10
2017-01-22T10:51:12.407Z,17.05
2017-01-22T10:52:18.783Z,17.05
2017-01-22T10:53:12.985Z,17.06
2017-01-22T10:54:13.596Z,17.05
2017-01-22T10:55:13.317Z,17.05
2017-01-22T10:56:12.342Z,17.05
2017-01-22T10:57:11.232Z,17.04
2017-01-22T10:58:13.360Z,17.61
2017-01-22T10:59:12.290Z,17.66
2017-01-22T11:00:12.201Z,17.68
2017-01-22T11:01:13.746Z,17.69
2017-01-22T11:02:12.223Z,17.72
2017-01-22T11:03:12.334Z,17.72
2017-01-22T11:04:13.150Z,17.50
2017-01-22T11:05:12.152Z,17.19
2017-01-22T11:06:13.544Z,17.13
2017-01-22T11:07:12.427Z,17.11
2017-01-22T11:08:13.551Z,17.10
2017-01-22T11:09:12.652Z,17.10
2017-01-22T11:10:12.412Z,17.09
2017-01-22T11:11:12.720Z,17.15
2017-01-22T11:12:12.254Z,17.09
2017-01-22T11:13:13.766Z,17.12
2017-01-22T11:14:12.780Z,17.09
2017-01-22T11:15:10.843Z,17.08
2017-01-22T11:16:12.426Z,17.63
2017-01-22T11:17:11.257Z,17.68
2017-01-22T11:18:12.964Z,17.20
2017-01-22T11:19:12.884Z,17.12
2017-01-22T11:20:11.855Z,17.11
2017-01-22T11:21:09.421Z,17.09
2017-01-22T11:22:12.946Z,17.09
2017-01-22T11:23:11.905Z,17.08
2017-01-22T11:24:12.104Z,17.08
2017-01-22T11:25:12.766Z,17.08
2017-01-22T11:26:12.359Z,17.07
2017-01-22T11:27:13.084Z,17.10
2017-01-22T11:28:13.736Z,17.07
2017-01-22T11:29:11.836Z,17.08
2017-01-22T11:30:11.714Z,17.08
2017-01-22T11:31:11.665Z,17.08
2017-01-22T11:32:13.274Z,17.07
2017-01-22T11:33:12.244Z,17.07
2017-01-22T11:34:14.023Z,17.07
2017-01-22T11:35:12.805Z,17.09
2017-01-22T11:36:12.049Z,17.08
2017-01-22T11:37:10.873Z,17.08
2017-01-22T11:38:12.671Z,17.13
2017-01-22T11:39:12.258Z,17.07
2017-01-22T11:40:11.682Z,17.07
2017-01-22T11:41:12.872Z,17.62
2017-01-22T11:42:13.503Z,17.68
2017-01-22T11:43:13.335Z,17.71
2017-01-22T11:44:12.396Z,17.76
2017-01-22T11:45:12.384Z,17.77
2017-01-22T11:46:13.226Z,17.82
2017-01-22T11:47:12.156Z,17.83
2017-01-22T11:48:13.022Z,17.86
2017-01-22T11:49:12.561Z,17.88
2017-01-22T11:50:12.632Z,17.90
2017-01-22T11:51:12.216Z,17.93
2017-01-22T11:52:12.824Z,17.95
2017-01-22T11:53:11.756Z,17.97
2017-01-22T11:54:12.449Z,18.01
2017-01-22T11:55:12.352Z,18.02
2017-01-22T11:56:13.315Z,18.05
2017-01-22T11:57:12.838Z,18.08
2017-01-22T11:58:11.931Z,18.11
2017-01-22T11:59:12.634Z,17.83
2017-01-22T12:00:12.446Z,17.63
2017-01-22T12:01:12.577Z,17.62
2017-01-22T12:02:13.214Z,17.61
2017-01-22T12:03:12.076Z,17.61
2017-01-22T12:04:12.706Z,17.61
2017-01-22T12:05:12.236Z,17.65
2017-01-22T12:06:12.223Z,17.68
2017-01-22T12:07:13.957Z,17.70
2017-01-22T12:08:11.047Z,17.71
2017-01-22T12:09:12.584Z,18.27
2017-01-22T12:10:11.614Z,18.34
2017-01-22T12:11:11.578Z,18.39
2017-01-22T12:12:13.427Z,18.42
2017-01-22T12:13:13.218Z,18.44
2017-01-22T12:14:13.801Z,18.49
2017-01-22T12:15:12.156Z,18.49
2017-01-22T12:16:12.418Z,18.51
2017-01-22T12:17:12.536Z,18.53
2017-01-22T12:18:13.194Z,18.54
2017-01-22T12:19:11.163Z,18.55
2017-01-22T12:20:13.622Z,18.03
2017-01-22T12:21:11.609Z,17.95
2017-01-22T12:22:13.271Z,17.86
2017-01-22T12:23:12.098Z,17.82
2017-01-22T12:24:12.793Z,17.85
2017-01-22T12:25:11.718Z,18.35
2017-01-22T12:26:12.216Z,18.41
2017-01-22T12:27:10.913Z,18.43
2017-01-22T12:28:13.195Z,17.92
2017-01-22T12:29:12.915Z,17.86
2017-01-22T12:30:12.564Z,17.85
2017-01-22T12:31:11.554Z,17.85
2017-01-22T12:32:14.099Z,17.85
2017-01-22T12:33:13.855Z,17.86
2017-01-22T12:34:12.837Z,17.86
2017-01-22T12:35:12.354Z,17.87
2017-01-22T12:36:12.262Z,17.87
2017-01-22T12:37:13.227Z,17.88
2017-01-22T12:38:12.349Z,17.88
2017-01-22T12:39:13.750Z,17.90
2017-01-22T12:40:11.876Z,17.91
2017-01-22T12:41:13.176Z,17.93
2017-01-22T12:42:13.415Z,17.88
2017-01-22T12:43:14.364Z,17.87
2017-01-22T12:44:11.088Z,17.88
2017-01-22T12:45:12.465Z,17.91
2017-01-22T12:46:13.163Z,17.91
2017-01-22T12:47:12.120Z,17.91
2017-01-22T12:48:10.650Z,17.92
2017-01-22T12:49:11.831Z,18.48
2017-01-22T12:50:10.812Z,18.53
2017-01-22T12:51:11.874Z,18.01
2017-01-22T12:52:11.891Z,17.97